Time;durP1;ratioP1;P1;durP2;ratioP2;P2;SDS_P1;SDS_P2;PMS_P1;PMS_P2;Temp;Humidity;BMP_temperature;BMP_pressure;BME280_temperature;BME280_humidity;BME280_pressure;Samples;Min_cycle;Max_cycle;Signal;HPM_P1;HPM_P2
2022/11/26 00:01:13;;;;;;;;;;;;;;;10.51;42.10;99250.06;5011948;28;19979;-77
2022/11/26 00:03:38;;;;;;;;;;;;;;;10.50;42.16;99256.22;5012014;28;19975;-77
2022/11/26 00:06:04;;;;;;;;;;;;;;;10.48;41.94;99255.47;5002247;28;19925;-77
2022/11/26 00:08:31;;;;;;;;;;;;;;;10.45;42.15;99258.28;5030931;28;19917;-77
2022/11/26 00:10:57;;;;;;;;;;;;;;;10.43;42.29;99260.19;5032066;28;19928;-77
2022/11/26 00:13:23;;;;;;;;;;;;;;;10.40;42.30;99269.03;5031259;28;20323;-77
2022/11/26 00:15:48;;;;;;;;;;;;;;;10.39;42.19;99259.56;5032689;28;20032;-77
2022/11/26 00:18:14;;;;;;;;;;;;;;;10.38;42.36;99263.09;5031797;28;19917;-77
2022/11/26 00:20:40;;;;;;;;;;;;;;;10.37;42.42;99268.41;5025106;28;19921;-76
2022/11/26 00:23:05;;;;;;;;;;;;;;;10.32;42.44;99264.34;5011863;28;20332;-76
2022/11/26 00:25:43;;;;;;;;;;;;;;;10.31;42.61;99264.44;4995383;28;19983;-77
2022/11/26 00:28:19;;;;;;;;;;;;;;;10.29;42.56;99280.19;5011896;28;19918;-77
2022/11/26 00:30:45;;;;;;;;;;;;;;;10.27;42.66;99281.22;4995161;28;20380;-77
2022/11/26 00:33:10;;;;;;;;;;;;;;;10.25;42.66;99278.72;5012978;28;19922;-77
2022/11/26 00:35:35;;;;;;;;;;;;;;;10.23;42.63;99275.38;4995364;28;19928;-77
2022/11/26 00:38:01;;;;;;;;;;;;;;;10.23;42.76;99279.72;5012032;28;19949;-77
2022/11/26 00:40:26;;;;;;;;;;;;;;;10.21;42.71;99276.41;5011844;28;20011;-77
2022/11/26 00:42:52;;;;;;;;;;;;;;;10.19;42.83;99280.91;5011771;28;19940;-77
2022/11/26 00:45:21;;;;;;;;;;;;;;;10.18;42.91;99277.44;5011246;28;20304;-77
2022/11/26 00:47:46;;;;;;;;;;;;;;;10.17;42.75;99283.59;4994307;28;19940;-76
2022/11/26 00:50:12;;;;;;;;;;;;;;;10.16;42.94;99278.50;5012633;28;19917;-77
2022/11/26 00:52:38;;;;;;;;;;;;;;;10.14;42.80;99289.03;5011654;28;20063;-76
2022/11/26 00:55:05;;;;;;;;;;;;;;;10.13;42.83;99284.72;5011292;28;20016;-76
2022/11/26 00:57:31;;;;;;;;;;;;;;;10.13;42.76;99289.94;4995166;28;19918;-77
2022/11/26 00:59:56;;;;;;;;;;;;;;;10.11;42.68;99290.03;5012800;28;20304;-77
2022/11/26 01:02:21;;;;;;;;;;;;;;;10.11;42.76;99290.03;5012622;28;19980;-77
2022/11/26 01:04:46;;;;;;;;;;;;;;;10.10;42.74;99290.16;4994991;28;19967;-77
2022/11/26 01:07:12;;;;;;;;;;;;;;;10.10;42.60;99292.75;4995023;28;19918;-77
2022/11/26 01:09:37;;;;;;;;;;;;;;;10.09;42.86;99297.16;4994909;28;19996;-78
2022/11/26 01:12:03;;;;;;;;;;;;;;;10.09;42.80;99291.94;5011652;28;20284;-77
2022/11/26 01:14:28;;;;;;;;;;;;;;;10.10;42.98;99300.59;5011918;28;19975;-77
2022/11/26 01:16:54;;;;;;;;;;;;;;;10.08;42.84;99307.69;4994594;28;19917;-77
2022/11/26 01:19:19;;;;;;;;;;;;;;;10.08;42.81;99297.25;5012098;28;19918;-77
2022/11/26 01:21:44;;;;;;;;;;;;;;;10.07;42.59;99296.41;5014931;28;19918;-76
2022/11/26 01:24:09;;;;;;;;;;;;;;;10.04;42.83;99294.00;4998494;28;19917;-76
2022/11/26 01:26:38;;;;;;;;;;;;;;;10.03;43.00;99300.16;5016323;28;19922;-77
2022/11/26 01:29:04;;;;;;;;;;;;;;;10.01;42.77;99296.81;5015384;28;19968;-76
2022/11/26 01:31:29;;;;;;;;;;;;;;;10.01;43.12;99301.19;5014966;28;20340;-77
2022/11/26 01:33:55;;;;;;;;;;;;;;;9.99;43.30;99308.28;5010976;28;19922;-77
2022/11/26 01:36:30;;;;;;;;;;;;;;;9.96;43.07;99298.88;4962631;28;19922;-77
2022/11/26 01:39:05;;;;;;;;;;;;;;;9.93;43.49;99291.25;4978688;28;19921;-78
2022/11/26 01:41:30;;;;;;;;;;;;;;;9.92;43.03;99289.59;4962926;28;19918;-77
2022/11/26 01:43:56;;;;;;;;;;;;;;;9.89;43.31;99285.41;4996196;28;19917;-76
2022/11/26 01:46:21;;;;;;;;;;;;;;;9.88;43.14;99283.75;4978815;28;20340;-78
2022/11/26 01:48:46;;;;;;;;;;;;;;;9.85;43.20;99281.31;4978495;28;20439;-77
2022/11/26 01:51:12;;;;;;;;;;;;;;;9.85;43.38;99281.31;4962270;28;19921;-77
2022/11/26 01:53:45;;;;;;;;;;;;;;;9.83;43.37;99277.97;4996493;28;19924;-76
2022/11/26 01:56:10;;;;;;;;;;;;;;;9.82;43.33;99281.53;4978705;28;19925;-77
2022/11/26 01:58:39;;;;;;;;;;;;;;;9.81;43.36;99279.84;4996336;28;20320;-77
2022/11/26 02:01:05;;;;;;;;;;;;;;;9.80;43.38;99290.38;4961954;28;20392;-77
2022/11/26 02:03:31;;;;;;;;;;;;;;;9.78;43.56;99287.84;4978600;28;20015;-77
2022/11/26 02:05:58;;;;;;;;;;;;;;;9.75;43.53;99286.28;4978354;28;19972;-77
2022/11/26 02:08:24;;;;;;;;;;;;;;;9.74;43.61;99276.81;4978957;28;20017;-77
2022/11/26 02:10:50;;;;;;;;;;;;;;;9.75;43.53;99281.06;4978490;28;19918;-76
2022/11/26 02:13:15;;;;;;;;;;;;;;;9.74;43.40;99275.94;4995899;28;19922;-77
2022/11/26 02:15:44;;;;;;;;;;;;;;;9.73;43.60;99282.09;4978183;28;20321;-77
2022/11/26 02:18:09;;;;;;;;;;;;;;;9.72;43.46;99294.28;4978304;28;19917;-78
2022/11/26 02:20:41;;;;;;;;;;;;;;;9.71;43.60;99289.16;4962024;28;19925;-76
2022/11/26 02:23:25;;;;;;;;;;;;;;;9.68;43.76;99299.81;4962498;28;19918;-77
2022/11/26 02:25:55;;;;;;;;;;;;;;;9.67;43.85;99306.78;4978025;28;19918;-77
2022/11/26 02:28:38;;;;;;;;;;;;;;;9.66;43.85;99312.97;4978312;28;19921;-77
2022/11/26 02:31:10;;;;;;;;;;;;;;;9.65;43.57;99316.47;4961051;28;19968;-77
2022/11/26 02:33:40;;;;;;;;;;;;;;;9.63;43.93;99317.50;4995530;28;19922;-78
2022/11/26 02:36:13;;;;;;;;;;;;;;;9.62;43.91;99315.84;4978099;28;19922;-76
2022/11/26 02:38:39;;;;;;;;;;;;;;;9.60;43.89;99315.94;4961847;28;20332;-76
2022/11/26 02:41:04;;;;;;;;;;;;;;;9.59;44.20;99319.47;4977850;28;19924;-77
2022/11/26 02:43:29;;;;;;;;;;;;;;;9.58;44.05;99318.66;4995053;28;19921;-76
2022/11/26 02:45:57;;;;;;;;;;;;;;;9.58;43.87;99313.44;4977789;28;19918;-77
2022/11/26 02:48:23;;;;;;;;;;;;;;;9.55;44.10;99317.97;4977897;28;19918;-77
2022/11/26 02:51:03;;;;;;;;;;;;;;;9.55;43.74;99320.59;5009968;28;19961;-77
2022/11/26 02:53:29;;;;;;;;;;;;;;;9.53;43.83;99325.91;5013591;28;20381;-77
2022/11/26 02:55:59;;;;;;;;;;;;;;;9.53;43.88;99330.28;5014840;28;19925;-77
2022/11/26 02:58:25;;;;;;;;;;;;;;;9.51;44.21;99335.59;5013540;28;20033;-77
2022/11/26 03:00:50;;;;;;;;;;;;;;;9.49;44.38;99339.22;5014347;28;20396;-77
2022/11/26 03:03:35;;;;;;;;;;;;;;;9.48;44.28;99345.38;5013628;28;19917;-77
2022/11/26 03:06:01;;;;;;;;;;;;;;;9.46;44.51;99347.25;5013357;28;19971;-77
2022/11/26 03:08:26;;;;;;;;;;;;;;;9.46;44.30;99347.25;4996820;28;19917;-76
2022/11/26 03:10:51;;;;;;;;;;;;;;;9.44;44.44;99349.09;5012980;28;19925;-76
2022/11/26 03:13:17;;;;;;;;;;;;;;;9.41;44.29;99356.19;4996412;28;19929;-77
2022/11/26 03:15:42;;;;;;;;;;;;;;;9.40;44.48;99356.28;5012913;28;19917;-77
2022/11/26 03:18:07;;;;;;;;;;;;;;;9.39;44.46;99349.38;5013031;28;19917;-77
2022/11/26 03:20:33;;;;;;;;;;;;;;;9.38;44.70;99350.31;4996431;28;20388;-77
2022/11/26 03:22:58;;;;;;;;;;;;;;;9.36;44.44;99349.56;5012747;28;19918;-77
2022/11/26 03:25:23;;;;;;;;;;;;;;;9.35;44.53;99343.53;5012444;28;19917;-77
2022/11/26 03:27:49;;;;;;;;;;;;;;;9.34;44.60;99344.44;5013909;28;19925;-77
2022/11/26 03:30:14;;;;;;;;;;;;;;;9.32;44.42;99338.50;5013794;28;19918;-76
2022/11/26 03:32:39;;;;;;;;;;;;;;;9.30;44.75;99348.19;5012957;28;20339;-76
2022/11/26 03:35:05;;;;;;;;;;;;;;;9.28;44.59;99352.63;5012792;28;19957;-77
2022/11/26 03:37:30;;;;;;;;;;;;;;;9.27;44.76;99357.97;5012567;28;19924;-77
2022/11/26 03:39:56;;;;;;;;;;;;;;;9.26;44.75;99367.53;4996195;28;19918;-77
2022/11/26 03:42:21;;;;;;;;;;;;;;;9.24;44.67;99372.84;4996301;28;19966;-77
2022/11/26 03:44:46;;;;;;;;;;;;;;;9.23;44.92;99373.78;5013980;28;19960;-77
2022/11/26 03:47:11;;;;;;;;;;;;;;;9.24;44.75;99374.59;4995876;28;19924;-77
2022/11/26 03:49:37;;;;;;;;;;;;;;;9.22;44.87;99376.47;4995798;28;20360;-77
2022/11/26 03:52:02;;;;;;;;;;;;;;;9.19;44.66;99385.31;5013300;28;19975;-77
2022/11/26 03:54:27;;;;;;;;;;;;;;;9.18;44.86;99388.81;5003574;28;20005;-77
2022/11/26 03:56:53;;;;;;;;;;;;;;;9.18;44.98;99395.81;4993784;28;19925;-77
2022/11/26 03:59:18;;;;;;;;;;;;;;;9.16;45.17;99401.13;4976323;28;19975;-77
2022/11/26 04:01:43;;;;;;;;;;;;;;;9.16;44.74;99397.69;4976481;28;19940;-77
2022/11/26 04:04:09;;;;;;;;;;;;;;;9.14;44.94;99396.91;4976257;28;20392;-76
2022/11/26 04:06:34;;;;;;;;;;;;;;;9.13;45.07;99400.47;4959458;28;19917;-75
2022/11/26 04:08:59;;;;;;;;;;;;;;;9.13;45.03;99398.69;4994083;28;19917;-78
2022/11/26 04:11:24;;;;;;;;;;;;;;;9.13;44.77;99398.69;5011884;28;19977;-77
2022/11/26 04:13:50;;;;;;;;;;;;;;;9.11;45.03;99400.56;5013047;28;19918;-77
2022/11/26 04:16:15;;;;;;;;;;;;;;;9.09;44.93;99404.19;4995048;28;19922;-76
2022/11/26 04:18:40;;;;;;;;;;;;;;;9.08;44.86;99420.72;5011986;28;20363;-77
2022/11/26 04:21:06;;;;;;;;;;;;;;;9.05;45.20;99422.59;4994930;28;19918;-77
2022/11/26 04:23:32;;;;;;;;;;;;;;;9.05;44.87;99424.34;4995189;28;20012;-76
2022/11/26 04:25:57;;;;;;;;;;;;;;;9.04;45.18;99415.72;5011821;28;20300;-77
2022/11/26 04:28:22;;;;;;;;;;;;;;;9.03;45.29;99408.00;5011893;28;19925;-77
2022/11/26 04:30:47;;;;;;;;;;;;;;;9.04;45.28;99412.25;5000090;28;20452;-77
2022/11/26 04:33:13;;;;;;;;;;;;;;;9.02;44.90;99417.56;4976261;28;19921;-77
2022/11/26 04:35:38;;;;;;;;;;;;;;;9.01;45.06;99412.44;4975989;28;19944;-77
2022/11/26 04:38:03;;;;;;;;;;;;;;;9.00;45.27;99423.81;4993015;28;19922;-77
2022/11/26 04:40:29;;;;;;;;;;;;;;;8.99;44.88;99424.72;4975697;28;19918;-77
2022/11/26 04:42:54;;;;;;;;;;;;;;;8.98;45.20;99425.63;4975760;28;19918;-77
2022/11/26 04:45:19;;;;;;;;;;;;;;;8.98;45.09;99428.25;4975870;28;20381;-77
2022/11/26 04:47:45;;;;;;;;;;;;;;;8.97;45.09;99431.78;4975919;28;19918;-77
2022/11/26 04:50:10;;;;;;;;;;;;;;;8.95;45.09;99420.59;4992855;28;19917;-76
2022/11/26 04:52:36;;;;;;;;;;;;;;;8.93;44.99;99425.06;4975610;28;19925;-77
2022/11/26 04:55:01;;;;;;;;;;;;;;;8.92;45.21;99426.00;4977501;28;19926;-79
2022/11/26 04:57:26;;;;;;;;;;;;;;;8.91;45.22;99425.16;4980297;28;20348;-77
2022/11/26 04:59:52;;;;;;;;;;;;;;;8.91;44.94;99434.75;4963569;28;19918;-76
2022/11/26 05:02:17;;;;;;;;;;;;;;;8.88;45.34;99430.56;4997132;28;19917;-76
2022/11/26 05:04:42;;;;;;;;;;;;;;;8.86;45.51;99435.84;4979412;28;20004;-76
2022/11/26 05:07:08;;;;;;;;;;;;;;;8.87;45.02;99434.06;4977896;28;19979;-76
2022/11/26 05:09:33;;;;;;;;;;;;;;;8.87;45.49;99434.06;5016630;28;20012;-76
2022/11/26 05:11:58;;;;;;;;;;;;;;;8.85;45.19;99436.75;5015432;28;20428;-76
2022/11/26 05:14:24;;;;;;;;;;;;;;;8.86;45.27;99445.44;4998789;28;20327;-77
2022/11/26 05:16:49;;;;;;;;;;;;;;;8.85;45.56;99446.34;4999286;28;19960;-76
2022/11/26 05:19:14;;;;;;;;;;;;;;;8.83;45.12;99449.03;4999030;28;20579;-76
2022/11/26 05:21:40;;;;;;;;;;;;;;;8.84;45.43;99452.50;4998192;28;19917;-76
2022/11/26 05:24:05;;;;;;;;;;;;;;;8.85;45.25;99457.59;5016406;28;19925;-78
2022/11/26 05:26:30;;;;;;;;;;;;;;;8.86;45.64;99463.66;4998102;28;19918;-75
2022/11/26 05:28:56;;;;;;;;;;;;;;;8.88;45.40;99469.59;5014994;28;19924;-77
2022/11/26 05:31:21;;;;;;;;;;;;;;;8.95;44.90;99476.16;5015082;28;19922;-76
2022/11/26 05:33:47;;;;;;;;;;;;;;;9.05;44.88;99481.66;5015039;28;20008;-79
2022/11/26 05:36:14;;;;;;;;;;;;;;;9.19;44.65;99481.69;5007084;28;19925;-82
2022/11/26 05:38:39;;;;;;;;;;;;;;;9.47;49.29;99482.66;4985871;28;19926;-81
2022/11/26 05:41:05;;;;;;;;;;;;;;;9.74;47.98;99481.91;4988609;28;19953;-75
2022/11/26 05:43:30;;;;;;;;;;;;;;;10.10;52.59;99488.41;4993969;28;20296;-78
2022/11/26 05:45:55;;;;;;;;;;;;;;;10.43;48.56;99484.66;4969508;28;19964;-85
2022/11/26 05:48:21;;;;;;;;;;;;;;;10.79;47.75;99493.66;4971855;28;19963;-85
2022/11/26 05:50:46;;;;;;;;;;;;;;;11.14;46.68;99483.50;5002254;28;19960;-79
2022/11/26 05:53:11;;;;;;;;;;;;;;;11.52;44.66;99489.69;4986026;28;20012;-88
2022/11/26 05:55:37;;;;;;;;;;;;;;;11.96;43.52;99490.22;4971024;28;20371;-77
2022/11/26 05:58:02;;;;;;;;;;;;;;;12.47;41.85;99496.13;5002287;28;19976;-77
2022/11/26 06:00:27;;;;;;;;;;;;;;;13.09;40.22;99496.88;5005380;28;20352;-85
2022/11/26 06:02:52;;;;;;;;;;;;;;;13.78;38.63;99506.56;4985812;28;19925;-82
2022/11/26 06:05:18;;;;;;;;;;;;;;;14.58;36.80;99500.28;4984989;28;19918;-81
2022/11/26 06:07:43;;;;;;;;;;;;;;;15.49;34.43;99507.75;5002916;28;19917;-80
2022/11/26 06:10:09;;;;;;;;;;;;;;;16.43;32.50;99511.06;4969949;28;19917;-80
2022/11/26 06:12:34;;;;;;;;;;;;;;;17.45;30.45;99509.00;4987551;28;19922;-81
2022/11/26 06:15:00;;;;;;;;;;;;;;;18.43;29.01;99509.47;4969686;28;20008;-84
2022/11/26 06:17:25;;;;;;;;;;;;;;;19.63;37.78;99515.28;4971969;28;19975;-83
2022/11/26 06:19:51;;;;;;;;;;;;;;;20.45;32.44;99509.53;4986270;28;19924;-82
2022/11/26 06:22:16;;;;;;;;;;;;;;;21.15;28.93;99515.28;5002726;28;20011;-82
2022/11/26 06:24:42;;;;;;;;;;;;;;;21.75;27.61;99520.38;4971335;28;20420;-80
2022/11/26 06:27:07;;;;;;;;;;;;;;;22.21;26.27;99521.34;4985567;28;19924;-85
2022/11/26 06:29:33;;;;;;;;;;;;;;;22.52;25.24;99512.59;5003284;28;19929;-84
2022/11/26 06:31:58;;;;;;;;;;;;;;;22.66;24.72;99519.00;4985343;28;19917;-82
2022/11/26 06:34:23;;;;;;;;;;;;;;;22.63;24.43;99523.84;4996056;28;19987;-87
2022/11/26 06:36:48;;;;;;;;;;;;;;;22.49;24.08;99523.59;4987583;28;19945;-80
2022/11/26 06:39:14;;;;;;;;;;;;;;;22.39;24.31;99530.94;5007845;28;19999;-80
2022/11/26 06:41:39;;;;;;;;;;;;;;;22.32;24.15;99535.31;5003424;28;19975;-80
2022/11/26 06:44:04;;;;;;;;;;;;;;;22.30;24.21;99530.16;4986795;28;19956;-80
2022/11/26 06:46:32;;;;;;;;;;;;;;;22.36;24.09;99526.81;4984727;28;20384;-81
2022/11/26 06:49:01;;;;;;;;;;;;;;;22.41;23.47;99528.97;5001645;28;19973;-79
2022/11/26 06:51:26;;;;;;;;;;;;;;;22.53;23.45;99537.38;4970568;28;19921;-84
2022/11/26 06:53:52;;;;;;;;;;;;;;;22.65;22.98;99543.13;4986187;28;19917;-81
2022/11/26 06:56:17;;;;;;;;;;;;;;;22.75;22.97;99530.41;4986761;28;20296;-80
2022/11/26 06:58:43;;;;;;;;;;;;;;;22.84;22.37;99533.84;4977717;28;20401;-80
2022/11/26 07:01:15;;;;;;;;;;;;;;;22.94;22.14;99540.59;4968513;28;19918;-74
2022/11/26 07:03:42;;;;;;;;;;;;;;;23.09;22.06;99531.88;4969940;28;20447;-77
2022/11/26 07:06:34;;;;;;;;;;;;;;;23.22;21.72;99521.44;4984000;28;19918;-74
2022/11/26 07:09:03;;;;;;;;;;;;;;;23.53;25.22;99528.47;4984109;28;20347;-80
2022/11/26 07:11:29;;;;;;;;;;;;;;;23.82;23.14;99527.66;4990527;28;19980;-83
2022/11/26 07:13:54;;;;;;;;;;;;;;;24.14;22.29;99532.84;5002627;28;19956;-81
2022/11/26 07:16:19;;;;;;;;;;;;;;;24.46;21.66;99528.06;5005253;28;19918;-82
2022/11/26 07:18:48;;;;;;;;;;;;;;;24.68;21.13;99526.28;4969299;28;20171;-82
2022/11/26 07:21:13;;;;;;;;;;;;;;;24.85;20.55;99525.03;5004522;28;20396;-80
2022/11/26 07:23:39;;;;;;;;;;;;;;;25.00;20.12;99533.00;4983562;28;19918;-80
2022/11/26 07:26:04;;;;;;;;;;;;;;;25.10;20.08;99533.47;5001413;28;19917;-82
2022/11/26 07:28:30;;;;;;;;;;;;;;;25.17;19.68;99538.88;4982996;28;20397;-79
2022/11/26 07:30:58;;;;;;;;;;;;;;;25.31;19.33;99539.84;4986137;28;20028;-79
2022/11/26 07:33:23;;;;;;;;;;;;;;;25.48;19.07;99539.56;5006389;28;19929;-79
2022/11/26 07:35:49;;;;;;;;;;;;;;;25.62;18.90;99544.00;4976898;28;19918;-79
2022/11/26 07:38:14;;;;;;;;;;;;;;;25.84;18.48;99542.06;4960856;28;19918;-79
2022/11/26 07:40:39;;;;;;;;;;;;;;;25.93;18.65;99561.44;4976608;28;20352;-79
2022/11/26 07:43:05;;;;;;;;;;;;;;;25.96;18.25;99558.38;4961315;28;20348;-78
2022/11/26 07:45:30;;;;;;;;;;;;;;;25.96;18.21;99553.84;4960733;28;20348;-86
2022/11/26 07:47:55;;;;;;;;;;;;;;;26.03;17.94;99559.28;5007220;28;19921;-79
2022/11/26 07:50:20;;;;;;;;;;;;;;;25.97;17.81;99560.88;4980627;28;20575;-79
2022/11/26 07:52:46;;;;;;;;;;;;;;;25.98;17.89;99551.84;4970576;28;19987;-80
2022/11/26 07:55:11;;;;;;;;;;;;;;;26.07;18.16;99554.34;4986240;28;19988;-79
2022/11/26 07:57:36;;;;;;;;;;;;;;;26.10;17.84;99551.28;4984543;28;19928;-79
2022/11/26 08:00:02;;;;;;;;;;;;;;;26.15;18.16;99546.97;4982705;28;19971;-76
2022/11/26 08:02:27;;;;;;;;;;;;;;;26.21;18.15;99553.41;4985195;28;19917;-78
2022/11/26 08:04:53;;;;;;;;;;;;;;;26.29;18.28;99547.88;4967212;28;19948;-78
2022/11/26 08:07:18;;;;;;;;;;;;;;;26.40;17.99;99551.81;4983696;28;19971;-78
2022/11/26 08:09:43;;;;;;;;;;;;;;;26.49;18.27;99545.28;5002300;28;20020;-77
2022/11/26 08:12:09;;;;;;;;;;;;;;;26.57;17.97;99538.91;4984559;28;19960;-79
2022/11/26 08:14:34;;;;;;;;;;;;;;;26.70;17.92;99538.16;4968791;28;19918;-79
2022/11/26 08:16:59;;;;;;;;;;;;;;;26.76;18.18;99540.03;4968118;28;19925;-77
2022/11/26 08:19:25;;;;;;;;;;;;;;;26.79;18.25;99542.28;4994285;28;20745;-78
2022/11/26 08:21:50;;;;;;;;;;;;;;;26.90;17.85;99549.72;4985429;28;19921;-74
2022/11/26 08:24:16;;;;;;;;;;;;;;;26.93;17.43;99553.00;4988376;28;19928;-73
2022/11/26 08:26:42;;;;;;;;;;;;;;;26.99;17.03;99553.00;5002166;28;19979;-74
2022/11/26 08:29:07;;;;;;;;;;;;;;;27.08;17.10;99550.97;4997909;28;19917;-76
2022/11/26 08:31:33;;;;;;;;;;;;;;;27.21;16.86;99555.50;5000630;28;20017;-75
2022/11/26 08:33:59;;;;;;;;;;;;;;;27.25;16.65;99552.22;4968405;28;19917;-75
2022/11/26 08:36:24;;;;;;;;;;;;;;;27.32;16.53;99559.47;4968582;28;19932;-75
2022/11/26 08:38:50;;;;;;;;;;;;;;;27.40;16.76;99565.44;4998823;28;19925;-73
2022/11/26 08:41:15;;;;;;;;;;;;;;;27.53;16.43;99567.31;5000468;28;19929;-74
2022/11/26 08:43:40;;;;;;;;;;;;;;;27.61;16.50;99561.72;4982884;28;19965;-80
2022/11/26 08:46:06;;;;;;;;;;;;;;;27.70;16.47;99566.88;4994518;28;20045;-78
2022/11/26 08:48:31;;;;;;;;;;;;;;;27.82;16.45;99564.34;4981925;28;19929;-82
2022/11/26 08:51:01;;;;;;;;;;;;;;;27.93;16.52;99569.91;4983646;28;19945;-84
2022/11/26 08:53:26;;;;;;;;;;;;;;;28.08;16.59;99564.31;4983878;28;19921;-79
2022/11/26 08:55:51;;;;;;;;;;;;;;;28.21;16.65;99568.00;4981838;28;20013;-76
2022/11/26 08:58:17;;;;;;;;;;;;;;;28.22;16.92;99572.34;5002096;28;19922;-73
2022/11/26 09:00:43;;;;;;;;;;;;;;;28.29;17.14;99576.66;4998774;28;19922;-75
2022/11/26 09:03:08;;;;;;;;;;;;;;;28.46;17.08;99570.78;4967867;28;19917;-74
2022/11/26 09:05:33;;;;;;;;;;;;;;;28.71;19.73;99572.78;5002003;28;19971;-77
2022/11/26 09:07:59;;;;;;;;;;;;;;;28.84;18.36;99578.91;4998946;28;19995;-80
2022/11/26 09:10:24;;;;;;;;;;;;;;;28.63;17.60;99582.72;4983613;28;20640;-82
2022/11/26 09:12:49;;;;;;;;;;;;;;;28.21;17.71;99576.06;4998454;28;19922;-82
2022/11/26 09:15:15;;;;;;;;;;;;;;;27.88;17.81;99583.16;5001633;28;19917;-82
2022/11/26 09:17:40;;;;;;;;;;;;;;;27.65;18.22;99578.22;4967435;28;19964;-81
2022/11/26 09:20:06;;;;;;;;;;;;;;;27.52;18.16;99583.59;5002533;28;20357;-83
2022/11/26 09:22:32;;;;;;;;;;;;;;;27.55;17.47;99575.16;4982981;28;19918;-82
2022/11/26 09:24:57;;;;;;;;;;;;;;;27.80;17.09;99578.00;5000559;28;19917;-79
2022/11/26 09:27:23;;;;;;;;;;;;;;;28.52;16.31;99578.00;4968376;28;19948;-79
2022/11/26 09:29:48;;;;;;;;;;;;;;;29.63;15.11;99580.38;4982859;28;20004;-76
2022/11/26 09:32:13;;;;;;;;;;;;;;;31.00;14.23;99581.91;5002497;28;19925;-79
2022/11/26 09:34:39;;;;;;;;;;;;;;;32.01;13.29;99575.66;4983818;28;19921;-77
2022/11/26 09:37:04;;;;;;;;;;;;;;;33.25;12.19;99578.84;4984691;28;21286;-79
2022/11/26 09:39:29;;;;;;;;;;;;;;;33.81;11.60;99576.19;4998475;28;20456;-78
2022/11/26 09:42:21;;;;;;;;;;;;;;;34.16;11.04;99575.84;4987112;28;19924;-81
2022/11/26 09:44:53;;;;;;;;;;;;;;;34.25;11.03;99566.22;4977357;28;19922;-80
2022/11/26 09:47:22;;;;;;;;;;;;;;;34.32;10.79;99563.31;5004678;28;19918;-77
2022/11/26 09:50:06;;;;;;;;;;;;;;;34.39;10.75;99571.25;4985999;28;19929;-82
2022/11/26 09:52:36;;;;;;;;;;;;;;;34.19;11.26;99566.38;5003557;28;20162;-78
2022/11/26 09:55:04;;;;;;;;;;;;;;;33.57;11.64;99553.91;4986393;28;19917;-78
2022/11/26 09:57:34;;;;;;;;;;;;;;;32.80;12.01;99551.59;4971278;28;19925;-78
2022/11/26 10:00:16;;;;;;;;;;;;;;;32.13;12.46;99552.16;4970430;28;19918;-78
2022/11/26 10:02:41;;;;;;;;;;;;;;;31.49;12.87;99555.59;4988233;28;20459;-77
2022/11/26 10:05:07;;;;;;;;;;;;;;;30.93;13.62;99554.19;4985299;28;19921;-79
2022/11/26 10:07:41;;;;;;;;;;;;;;;30.57;13.60;99551.41;5007018;28;19917;-79
2022/11/26 10:10:18;;;;;;;;;;;;;;;29.82;14.59;99551.66;4987783;28;20369;-78
2022/11/26 10:13:05;;;;;;;;;;;;;;;29.49;15.01;99550.91;5004892;28;19925;-77
2022/11/26 10:15:34;;;;;;;;;;;;;;;29.20;15.46;99544.34;4987922;28;20411;-77
2022/11/26 10:18:08;;;;;;;;;;;;;;;28.91;15.45;99551.97;5002745;28;19924;-78
2022/11/26 10:20:44;;;;;;;;;;;;;;;28.42;15.72;99548.91;5003414;28;19918;-78
2022/11/26 10:23:12;;;;;;;;;;;;;;;28.12;16.09;99541.41;4986858;28;19917;-78
2022/11/26 10:25:38;;;;;;;;;;;;;;;27.96;15.95;99544.56;5003672;28;20343;-83
2022/11/26 10:28:09;;;;;;;;;;;;;;;27.72;16.56;99537.97;4985797;28;19928;-80
2022/11/26 10:30:34;;;;;;;;;;;;;;;27.54;16.55;99535.94;4969992;28;20378;-77
2022/11/26 10:33:00;;;;;;;;;;;;;;;27.24;16.79;99537.16;5003672;28;20479;-77
2022/11/26 10:35:26;;;;;;;;;;;;;;;26.99;17.18;99528.09;4987409;28;19965;-78
2022/11/26 10:37:53;;;;;;;;;;;;;;;26.71;17.13;99521.06;4987002;28;19918;-77
2022/11/26 10:40:28;;;;;;;;;;;;;;;26.50;17.13;99528.19;4970044;28;19980;-79
2022/11/26 10:43:09;;;;;;;;;;;;;;;26.21;17.32;99528.50;4987102;28;19917;-77
2022/11/26 10:45:38;;;;;;;;;;;;;;;25.97;17.61;99527.97;4968491;28;19971;-78
2022/11/26 10:48:13;;;;;;;;;;;;;;;25.92;17.43;99525.00;4987029;28;19925;-78
2022/11/26 10:50:39;;;;;;;;;;;;;;;25.66;17.77;99526.53;4987959;28;19940;-79
2022/11/26 10:53:05;;;;;;;;;;;;;;;25.44;18.07;99523.94;5000938;28;20392;-79
2022/11/26 10:55:31;;;;;;;;;;;;;;;25.35;18.80;99522.41;4970741;28;19961;-79
2022/11/26 10:57:58;;;;;;;;;;;;;;;25.18;18.59;99515.69;4969718;28;19933;-79
2022/11/26 11:00:28;;;;;;;;;;;;;;;25.00;18.92;99519.63;5003948;28;19917;-80
2022/11/26 11:02:53;;;;;;;;;;;;;;;24.80;18.93;99516.78;5003093;28;19988;-78
2022/11/26 11:05:18;;;;;;;;;;;;;;;24.56;19.12;99512.59;4970308;28;19917;-78
2022/11/26 11:07:44;;;;;;;;;;;;;;;24.32;19.16;99522.59;4986668;28;20050;-78
2022/11/26 11:10:09;;;;;;;;;;;;;;;24.09;19.76;99514.72;4989831;28;19918;-78
2022/11/26 11:12:36;;;;;;;;;;;;;;;23.90;20.03;99510.78;4982666;28;19921;-79
2022/11/26 11:15:17;;;;;;;;;;;;;;;23.76;20.52;99515.06;4982847;28;20009;-79
2022/11/26 11:17:42;;;;;;;;;;;;;;;23.69;20.62;99505.31;4999402;28;19976;-80
2022/11/26 11:20:13;;;;;;;;;;;;;;;23.45;21.03;99501.91;4983059;28;19921;-81
2022/11/26 11:22:39;;;;;;;;;;;;;;;23.16;21.57;99508.84;4986341;28;19918;-79
2022/11/26 11:25:04;;;;;;;;;;;;;;;22.82;21.99;99510.09;4997660;28;19918;-78
2022/11/26 11:27:40;;;;;;;;;;;;;;;22.44;22.21;99514.47;4966907;28;20415;-77
2022/11/26 11:30:28;;;;;;;;;;;;;;;22.28;22.66;99507.38;4983693;28;19918;-78
2022/11/26 11:32:55;;;;;;;;;;;;;;;21.94;22.86;99509.34;4984219;28;19918;-78
2022/11/26 11:35:25;;;;;;;;;;;;;;;21.86;23.46;99510.19;4981889;28;20008;-78
2022/11/26 11:37:51;;;;;;;;;;;;;;;21.73;23.30;99504.59;4964742;28;19921;-78
2022/11/26 11:40:22;;;;;;;;;;;;;;;21.57;23.37;99509.94;4998649;28;19917;-77
2022/11/26 11:42:53;;;;;;;;;;;;;;;21.31;23.77;99517.09;4967259;28;19984;-79
2022/11/26 11:45:33;;;;;;;;;;;;;;;21.09;23.81;99507.97;4965911;28;20026;-77
2022/11/26 11:48:11;;;;;;;;;;;;;;;20.95;23.83;99506.84;4998939;28;20040;-80
2022/11/26 11:50:43;;;;;;;;;;;;;;;20.74;24.05;99499.34;4998995;28;19953;-78
2022/11/26 11:53:15;;;;;;;;;;;;;;;20.62;24.02;99497.97;4966842;28;19978;-81
2022/11/26 11:55:40;;;;;;;;;;;;;;;20.54;24.10;99500.59;4981418;28;20036;-78
2022/11/26 11:58:18;;;;;;;;;;;;;;;20.46;24.29;99495.28;4982579;28;20429;-78
2022/11/26 12:00:46;;;;;;;;;;;;;;;20.29;24.74;99499.69;4998494;28;20372;-77
2022/11/26 12:03:15;;;;;;;;;;;;;;;20.13;24.29;99496.03;4982176;28;19934;-78
2022/11/26 12:05:46;;;;;;;;;;;;;;;20.02;28.76;99494.50;4980802;28;19924;-82
2022/11/26 12:08:18;;;;;;;;;;;;;;;19.84;28.16;99494.56;4996793;28;19928;-77
2022/11/26 12:10:57;;;;;;;;;;;;;;;19.71;28.31;99500.25;4980864;28;19922;-75
2022/11/26 12:13:22;;;;;;;;;;;;;;;19.58;29.28;99499.06;4965394;28;19926;-76
2022/11/26 12:15:50;;;;;;;;;;;;;;;19.43;28.64;99498.78;4980273;28;19981;-78
2022/11/26 12:18:15;;;;;;;;;;;;;;;19.33;29.20;99496.22;4981522;28;19928;-76
2022/11/26 12:20:45;;;;;;;;;;;;;;;19.18;29.57;99493.28;4981410;28;19918;-81
2022/11/26 12:23:33;;;;;;;;;;;;;;;19.14;34.45;99495.44;4982564;28;19918;-78
2022/11/26 12:26:05;;;;;;;;;;;;;;;19.36;41.03;99492.47;5016725;28;19989;-80
2022/11/26 12:28:31;;;;;;;;;;;;;;;19.57;37.03;99502.69;4980863;28;19918;-78
2022/11/26 12:31:00;;;;;;;;;;;;;;;19.61;34.77;99488.97;4998495;28;20345;-77
2022/11/26 12:33:27;;;;;;;;;;;;;;;19.58;33.33;99493.75;4998968;28;19976;-77
2022/11/26 12:35:53;;;;;;;;;;;;;;;19.48;32.82;99497.34;4987995;28;19922;-77
2022/11/26 12:38:24;;;;;;;;;;;;;;;19.42;32.75;99497.97;4989456;28;19922;-76
2022/11/26 12:40:51;;;;;;;;;;;;;;;19.37;32.85;99499.41;4968306;28;19921;-77
2022/11/26 12:43:18;;;;;;;;;;;;;;;19.35;33.53;99504.84;5001693;28;19984;-76
2022/11/26 12:46:03;;;;;;;;;;;;;;;19.30;33.56;99497.38;4980446;28;19922;-77
2022/11/26 12:48:47;;;;;;;;;;;;;;;19.27;33.50;99499.50;4981669;28;19922;-80
2022/11/26 12:51:16;;;;;;;;;;;;;;;19.19;33.68;99497.63;4998428;28;19918;-77